createdAt,value
2023-05-24T00:00:42.242Z,16.70
2023-05-24T00:03:09.887Z,16.80
2023-05-24T00:05:47.035Z,16.80
2023-05-24T00:08:16.222Z,16.80
2023-05-24T00:10:43.517Z,16.80
2023-05-24T00:13:10.694Z,16.80
2023-05-24T00:15:45.750Z,16.80
2023-05-24T00:18:12.668Z,16.70
2023-05-24T00:20:52.179Z,16.70
2023-05-24T00:23:21.683Z,16.70
2023-05-24T00:25:55.952Z,16.60
2023-05-24T00:28:22.898Z,16.60
2023-05-24T00:30:59.135Z,16.60
2023-05-24T00:33:27.117Z,16.60
2023-05-24T00:35:59.943Z,16.60
2023-05-24T00:38:27.066Z,16.60
2023-05-24T00:40:57.471Z,16.60
2023-05-24T00:43:24.479Z,16.60
2023-05-24T00:46:15.417Z,16.60
2023-05-24T00:48:57.220Z,16.50
2023-05-24T00:51:26.555Z,16.50
2023-05-24T00:53:53.870Z,16.50
2023-05-24T00:56:23.665Z,16.50
2023-05-24T00:58:54.894Z,16.40
2023-05-24T01:01:27.946Z,16.40
2023-05-24T01:03:55.409Z,16.40
2023-05-24T01:06:24.925Z,16.20
2023-05-24T01:09:06.815Z,16.10
2023-05-24T01:11:45.675Z,16.00
2023-05-24T01:14:37.414Z,15.90
2023-05-24T01:17:17.972Z,15.80
2023-05-24T01:19:55.576Z,15.80
2023-05-24T01:22:48.860Z,15.80
2023-05-24T01:25:49.030Z,15.80
2023-05-24T01:28:21.758Z,15.80
2023-05-24T01:30:49.054Z,15.80
2023-05-24T01:33:16.128Z,15.80
2023-05-24T01:35:45.251Z,15.80
2023-05-24T01:38:22.641Z,15.80
2023-05-24T01:41:01.445Z,15.80
2023-05-24T01:44:01.699Z,15.70
2023-05-24T01:46:35.065Z,15.70
2023-05-24T01:49:26.997Z,15.70
2023-05-24T01:52:11.434Z,15.60
2023-05-24T01:54:43.543Z,15.50
2023-05-24T01:57:11.221Z,15.50
2023-05-24T01:59:42.016Z,15.40
2023-05-24T02:02:12.761Z,15.40
2023-05-24T02:04:41.678Z,15.40
2023-05-24T02:07:13.792Z,15.40
2023-05-24T02:09:42.022Z,15.40
2023-05-24T02:12:09.540Z,15.40
2023-05-24T02:14:45.515Z,15.50
2023-05-24T02:17:14.597Z,15.40
2023-05-24T02:19:41.600Z,15.40
2023-05-24T02:22:18.663Z,15.40
2023-05-24T02:24:48.462Z,15.50
2023-05-24T02:27:15.637Z,15.50
2023-05-24T02:29:43.157Z,15.50
2023-05-24T02:32:19.378Z,15.50
2023-05-24T02:34:46.460Z,15.50
2023-05-24T02:37:20.707Z,15.50
2023-05-24T02:39:51.006Z,15.50
2023-05-24T02:42:17.857Z,15.50
2023-05-24T02:44:49.154Z,15.50
2023-05-24T02:47:16.031Z,15.50
2023-05-24T02:49:47.952Z,15.50
2023-05-24T02:52:16.132Z,15.50
2023-05-24T02:54:49.529Z,15.50
2023-05-24T02:57:16.785Z,15.50
2023-05-24T02:59:49.434Z,15.50
2023-05-24T03:02:18.255Z,15.50
2023-05-24T03:04:52.366Z,15.60
2023-05-24T03:07:19.326Z,15.50
2023-05-24T03:09:50.637Z,15.50
2023-05-24T03:12:17.696Z,15.50
2023-05-24T03:14:44.706Z,15.60
2023-05-24T03:17:13.825Z,15.60
2023-05-24T03:19:40.743Z,15.60
2023-05-24T03:22:12.622Z,15.60
2023-05-24T03:24:40.119Z,15.60
2023-05-24T03:27:08.923Z,15.60
2023-05-24T03:29:40.856Z,15.60
2023-05-24T03:32:07.774Z,15.70
2023-05-24T03:34:52.255Z,15.70
2023-05-24T03:37:19.113Z,15.70
2023-05-24T03:39:46.509Z,15.70
2023-05-24T03:42:13.630Z,15.70
2023-05-24T03:45:06.984Z,15.80
2023-05-24T03:47:35.581Z,15.70
2023-05-24T03:50:03.947Z,15.80
2023-05-24T03:52:30.885Z,15.80
2023-05-24T03:54:59.330Z,15.80
2023-05-24T03:57:27.739Z,15.80
2023-05-24T04:06:30.289Z,15.80
2023-05-24T04:09:15.776Z,15.80
2023-05-24T04:14:49.731Z,15.80
2023-05-24T04:20:16.014Z,15.80
2023-05-24T04:22:53.845Z,15.80
2023-05-24T04:31:33.890Z,15.80
2023-05-24T04:31:41.269Z,15.80
2023-05-24T04:34:20.477Z,15.80
2023-05-24T04:36:49.550Z,15.80
2023-05-24T04:40:00.002Z,15.80
2023-05-24T04:42:53.385Z,15.80
2023-05-24T04:45:56.556Z,15.80
2023-05-24T04:51:22.219Z,15.80
2023-05-24T04:53:50.479Z,15.90
2023-05-24T04:56:19.999Z,15.90
2023-05-24T04:59:12.512Z,15.90
2023-05-24T05:01:50.859Z,15.90
2023-05-24T05:04:18.986Z,15.90
2023-05-24T05:06:49.290Z,15.90
2023-05-24T05:09:16.246Z,16.00
2023-05-24T05:11:43.391Z,15.90
2023-05-24T05:14:10.528Z,16.00
2023-05-24T05:16:38.258Z,16.00
2023-05-24T05:19:06.020Z,16.00
2023-05-24T05:21:33.154Z,16.00
2023-05-24T05:24:01.127Z,16.10
2023-05-24T05:26:29.107Z,16.00
2023-05-24T05:28:57.069Z,16.00
2023-05-24T05:31:25.080Z,16.10
2023-05-24T05:33:51.851Z,16.10
2023-05-24T05:36:18.665Z,16.20
2023-05-24T05:38:45.514Z,16.20
2023-05-24T05:41:12.302Z,16.30
2023-05-24T05:43:39.186Z,16.30
2023-05-24T05:46:06.580Z,16.30
2023-05-24T05:48:33.340Z,16.40
2023-05-24T05:51:01.257Z,16.50
2023-05-24T05:53:32.602Z,16.50
2023-05-24T05:56:06.874Z,16.60
2023-05-24T05:58:34.931Z,16.60
2023-05-24T06:01:01.661Z,16.70
2023-05-24T06:03:31.667Z,16.70
2023-05-24T06:05:59.258Z,16.80
2023-05-24T06:08:26.584Z,16.80
2023-05-24T06:10:53.377Z,16.60
2023-05-24T06:13:20.189Z,16.70
2023-05-24T06:15:47.131Z,16.70
2023-05-24T06:18:15.173Z,16.70
2023-05-24T06:20:42.178Z,16.80
2023-05-24T06:23:09.458Z,16.90
2023-05-24T06:25:36.229Z,16.90
2023-05-24T06:28:03.026Z,16.90
2023-05-24T06:30:30.013Z,17.00
2023-05-24T06:32:57.488Z,17.00
2023-05-24T06:35:24.236Z,17.00
2023-05-24T06:37:51.402Z,17.00
2023-05-24T06:40:18.277Z,17.10
2023-05-24T06:42:45.022Z,17.10
2023-05-24T06:45:11.942Z,17.10
2023-05-24T06:47:38.765Z,17.20
2023-05-24T06:50:06.281Z,17.30
2023-05-24T06:52:33.043Z,17.40
2023-05-24T06:54:59.919Z,17.50
2023-05-24T06:57:27.013Z,17.60
2023-05-24T06:59:53.791Z,17.60
2023-05-24T07:02:26.604Z,17.80
2023-05-24T07:04:53.705Z,17.90
2023-05-24T07:07:20.967Z,18.00
2023-05-24T07:09:47.700Z,18.10
2023-05-24T07:12:14.663Z,18.20
2023-05-24T07:14:41.607Z,18.30
2023-05-24T07:17:08.658Z,18.30
2023-05-24T07:19:36.108Z,18.30
2023-05-24T07:22:02.927Z,18.10
2023-05-24T07:24:37.130Z,18.20
2023-05-24T07:27:05.052Z,18.30
2023-05-24T07:29:35.263Z,18.40
2023-05-24T07:32:02.392Z,18.60
2023-05-24T07:34:30.401Z,18.60
2023-05-24T07:37:00.616Z,18.50
2023-05-24T07:39:28.539Z,18.50
2023-05-24T07:41:55.505Z,18.50
2023-05-24T07:44:23.834Z,18.50
2023-05-24T07:46:51.134Z,18.60
2023-05-24T07:49:18.323Z,18.50
2023-05-24T07:51:45.848Z,18.60
2023-05-24T07:54:12.611Z,18.70
2023-05-24T07:56:44.082Z,18.60
2023-05-24T07:59:12.439Z,18.60
2023-05-24T08:01:40.994Z,18.50
2023-05-24T08:04:09.858Z,18.60
2023-05-24T08:06:39.522Z,18.60
2023-05-24T08:09:08.306Z,18.50
2023-05-24T08:11:37.388Z,18.60
2023-05-24T08:14:04.134Z,18.60
2023-05-24T08:16:31.901Z,18.60
2023-05-24T08:18:58.687Z,18.60
2023-05-24T08:21:25.495Z,18.70
2023-05-24T08:23:52.337Z,18.60
2023-05-24T08:26:20.848Z,18.70
2023-05-24T08:28:48.177Z,18.70
2023-05-24T08:31:15.012Z,18.70
2023-05-24T08:33:42.964Z,18.80
2023-05-24T08:36:10.303Z,18.80
2023-05-24T08:38:37.018Z,18.90
2023-05-24T08:41:09.375Z,18.90
2023-05-24T08:43:37.323Z,18.90
2023-05-24T08:46:05.764Z,18.90
2023-05-24T08:48:32.768Z,18.80
2023-05-24T08:50:59.603Z,18.90
2023-05-24T08:53:27.336Z,18.90
2023-05-24T08:55:55.812Z,19.00
2023-05-24T08:58:23.150Z,19.00
2023-05-24T09:00:49.935Z,19.10
2023-05-24T09:03:17.548Z,19.20
2023-05-24T09:05:45.273Z,19.20
2023-05-24T09:08:17.834Z,19.10
2023-05-24T09:10:55.020Z,19.10
2023-05-24T09:13:24.628Z,19.00
2023-05-24T09:15:51.998Z,19.10
2023-05-24T09:18:18.844Z,19.10
2023-05-24T09:20:45.947Z,19.20
2023-05-24T09:23:13.741Z,19.40
2023-05-24T09:25:44.784Z,19.50
2023-05-24T09:28:14.804Z,19.70
2023-05-24T09:30:43.669Z,19.80
2023-05-24T09:33:11.391Z,20.30
2023-05-24T09:35:43.358Z,21.00
2023-05-24T09:38:21.051Z,21.00
2023-05-24T09:40:47.883Z,21.60
2023-05-24T09:43:14.599Z,21.80
2023-05-24T09:45:49.180Z,21.40
2023-05-24T09:48:20.562Z,21.30
2023-05-24T09:51:07.400Z,21.50
2023-05-24T09:53:35.876Z,21.50
2023-05-24T09:56:10.041Z,21.60
2023-05-24T09:58:37.174Z,21.70
2023-05-24T10:01:09.043Z,21.70
2023-05-24T10:03:37.513Z,22.00
2023-05-24T10:06:07.554Z,21.90
2023-05-24T10:08:36.382Z,21.90
2023-05-24T10:11:06.837Z,21.80
2023-05-24T10:13:35.823Z,21.90
2023-05-24T10:16:05.887Z,21.70
2023-05-24T10:18:33.035Z,22.00
2023-05-24T10:21:01.781Z,22.40
2023-05-24T10:23:32.658Z,22.60
2023-05-24T10:26:07.663Z,22.60
2023-05-24T10:28:43.151Z,22.60
2023-05-24T10:31:18.123Z,22.70
2023-05-24T10:33:48.369Z,22.50
2023-05-24T10:36:16.426Z,21.90
2023-05-24T10:38:43.683Z,21.70
2023-05-24T10:41:13.059Z,21.70
2023-05-24T10:43:40.598Z,21.80
2023-05-24T10:46:09.549Z,21.70
2023-05-24T10:48:40.967Z,21.60
2023-05-24T10:51:32.886Z,21.60
2023-05-24T10:54:15.775Z,21.50
2023-05-24T10:56:45.082Z,21.60
2023-05-24T10:59:22.624Z,21.50
2023-05-24T11:01:56.772Z,21.60
2023-05-24T11:04:23.895Z,21.40
2023-05-24T11:06:55.690Z,21.20
2023-05-24T11:09:23.635Z,20.90
2023-05-24T11:11:54.466Z,20.90
2023-05-24T11:14:27.849Z,20.80
2023-05-24T11:16:55.212Z,20.60
2023-05-24T11:19:34.514Z,20.60
2023-05-24T11:22:05.733Z,20.50
2023-05-24T11:24:33.223Z,20.40
2023-05-24T11:27:02.298Z,20.10
2023-05-24T11:29:30.606Z,19.90
2023-05-24T11:32:05.416Z,19.80
2023-05-24T11:34:32.836Z,19.60
2023-05-24T11:37:00.731Z,19.40
2023-05-24T11:39:37.311Z,19.40
2023-05-24T11:42:07.443Z,19.40
2023-05-24T11:44:34.741Z,19.40
2023-05-24T11:47:03.737Z,19.40
2023-05-24T11:49:32.367Z,19.30
2023-05-24T11:51:59.834Z,19.20
2023-05-24T11:54:32.973Z,19.30
2023-05-24T11:57:00.437Z,19.30
2023-05-24T11:59:30.674Z,19.40
2023-05-24T12:02:08.928Z,19.50
2023-05-24T12:04:35.948Z,19.50
2023-05-24T12:07:03.308Z,19.50
2023-05-24T12:09:30.241Z,19.40
2023-05-24T12:11:58.563Z,19.30
2023-05-24T12:14:28.992Z,19.40
2023-05-24T12:16:57.439Z,19.30
2023-05-24T12:19:33.673Z,19.30
2023-05-24T12:22:05.266Z,19.40
2023-05-24T12:24:32.853Z,19.60
2023-05-24T12:27:08.286Z,19.60
2023-05-24T12:29:40.510Z,19.60
2023-05-24T12:32:13.078Z,19.70
2023-05-24T12:34:43.465Z,19.60
2023-05-24T12:37:12.467Z,19.70
2023-05-24T12:39:43.515Z,19.90
2023-05-24T12:42:12.254Z,20.00
2023-05-24T12:44:39.915Z,20.10
2023-05-24T12:47:08.500Z,19.90
2023-05-24T12:49:35.747Z,19.90
2023-05-24T12:52:02.916Z,20.10
2023-05-24T12:54:30.472Z,20.10
2023-05-24T12:57:00.557Z,20.20
2023-05-24T12:59:29.404Z,20.30
2023-05-24T13:01:58.169Z,20.40
2023-05-24T13:04:31.826Z,20.40
2023-05-24T13:06:58.815Z,20.20
2023-05-24T13:09:26.295Z,20.10
2023-05-24T13:11:55.263Z,20.10
2023-05-24T13:14:22.289Z,20.00
2023-05-24T13:16:49.565Z,20.00
2023-05-24T13:19:17.123Z,19.90
2023-05-24T13:21:44.125Z,19.80
2023-05-24T13:24:10.964Z,19.80
2023-05-24T13:26:38.842Z,19.80
2023-05-24T13:31:40.696Z,19.60
2023-05-24T13:34:09.021Z,19.60
2023-05-24T13:36:37.981Z,19.40
2023-05-24T13:41:35.601Z,19.40
2023-05-24T13:44:02.521Z,19.40
2023-05-24T13:46:29.728Z,19.40
2023-05-24T13:48:58.705Z,19.50
2023-05-24T13:51:29.201Z,19.60
2023-05-24T13:53:56.417Z,19.60
2023-05-24T13:56:24.338Z,19.70
2023-05-24T13:58:52.344Z,19.80
2023-05-24T14:01:19.975Z,19.80
2023-05-24T14:03:52.468Z,19.80
2023-05-24T14:06:22.808Z,19.70
2023-05-24T14:08:52.590Z,19.80
2023-05-24T14:11:22.447Z,19.90
2023-05-24T14:14:43.746Z,19.80
2023-05-24T14:16:43.185Z,19.70
2023-05-24T14:19:10.361Z,19.70
2023-05-24T14:21:43.060Z,19.80
2023-05-24T14:24:11.308Z,19.70
2023-05-24T14:26:43.695Z,19.70
2023-05-24T14:29:32.805Z,19.50
2023-05-24T14:35:24.317Z,19.60
2023-05-24T14:36:06.118Z,19.50
2023-05-24T14:37:51.056Z,19.50
2023-05-24T14:40:19.982Z,19.50
2023-05-24T14:42:47.074Z,19.50
2023-05-24T14:45:20.065Z,19.60
2023-05-24T14:48:03.221Z,19.60
2023-05-24T14:56:46.216Z,19.70
2023-05-24T14:59:16.116Z,19.80
2023-05-24T15:01:43.109Z,19.60
2023-05-24T15:04:11.474Z,19.60
2023-05-24T15:06:40.869Z,19.60
2023-05-24T15:09:14.440Z,19.60
2023-05-24T15:11:48.985Z,19.60
2023-05-24T15:14:16.496Z,19.50
2023-05-24T15:16:45.569Z,19.50
2023-05-24T15:19:18.191Z,19.50
2023-05-24T15:21:44.996Z,19.50
2023-05-24T15:24:15.815Z,19.50
2023-05-24T15:26:43.722Z,19.60
2023-05-24T15:29:13.604Z,19.60
2023-05-24T15:31:42.040Z,19.50
2023-05-24T15:34:18.519Z,19.50
2023-05-24T15:37:11.660Z,19.50
2023-05-24T15:39:38.842Z,19.40
2023-05-24T15:42:16.499Z,19.30
2023-05-24T15:44:45.563Z,19.20
2023-05-24T15:47:22.569Z,19.20
2023-05-24T15:50:02.740Z,19.00
2023-05-24T15:52:29.633Z,19.00
2023-05-24T15:54:59.591Z,19.10
2023-05-24T15:57:26.428Z,19.10
2023-05-24T15:59:57.152Z,19.00
2023-05-24T16:02:24.138Z,19.10
2023-05-24T16:04:51.152Z,18.80
2023-05-24T16:07:41.540Z,18.90
2023-05-24T16:10:10.126Z,18.70
2023-05-24T16:12:52.863Z,18.70
2023-05-24T16:15:55.775Z,18.70
2023-05-24T16:18:28.207Z,18.60
2023-05-24T16:20:55.140Z,18.50
2023-05-24T16:23:25.833Z,18.50
2023-05-24T16:25:54.124Z,18.50
2023-05-24T16:28:27.235Z,18.50
2023-05-24T16:30:57.458Z,18.50
2023-05-24T16:33:38.385Z,18.50
2023-05-24T16:36:07.806Z,18.50
2023-05-24T16:38:38.942Z,18.40
2023-05-24T16:41:11.286Z,18.40
2023-05-24T16:43:42.795Z,18.30
2023-05-24T16:46:11.135Z,18.20
2023-05-24T16:48:39.522Z,18.10
2023-05-24T16:51:27.810Z,18.00
2023-05-24T16:53:59.132Z,17.90
2023-05-24T16:56:26.115Z,17.80
2023-05-24T16:58:57.759Z,17.80
2023-05-24T17:02:18.123Z,17.70
2023-05-24T17:04:37.574Z,17.70
2023-05-24T17:07:07.377Z,17.70
2023-05-24T17:09:36.609Z,17.70
2023-05-24T17:12:04.041Z,17.50
2023-05-24T17:14:32.207Z,17.50
2023-05-24T17:16:59.233Z,17.40
2023-05-24T17:19:28.000Z,17.30
2023-05-24T17:22:13.018Z,17.20
2023-05-24T17:24:39.799Z,17.20
2023-05-24T17:27:19.981Z,17.10
2023-05-24T17:32:37.447Z,17.10
2023-05-24T17:35:22.907Z,17.00
2023-05-24T17:37:49.761Z,16.90
2023-05-24T17:40:22.676Z,16.70
2023-05-24T17:42:50.675Z,16.70
2023-05-24T17:49:01.159Z,16.60
2023-05-24T17:51:11.095Z,16.60
2023-05-24T17:53:41.433Z,16.50
2023-05-24T17:56:17.589Z,16.40
2023-05-24T17:58:56.148Z,16.50
2023-05-24T18:01:27.939Z,16.50
2023-05-24T18:06:37.577Z,16.20
2023-05-24T18:09:05.298Z,16.20
2023-05-24T18:11:49.875Z,16.20
2023-05-24T18:14:20.926Z,16.10
2023-05-24T18:16:47.904Z,16.10
2023-05-24T18:19:29.462Z,16.00
2023-05-24T18:21:56.324Z,16.00
2023-05-24T18:24:23.235Z,15.90
2023-05-24T18:27:04.202Z,15.90
2023-05-24T18:29:31.671Z,15.90
2023-05-24T18:31:58.679Z,15.80
2023-05-24T18:34:29.930Z,15.90
2023-05-24T18:36:59.037Z,15.80
2023-05-24T18:39:32.632Z,15.80
2023-05-24T18:41:59.645Z,15.80
2023-05-24T18:44:29.907Z,15.70
2023-05-24T18:47:07.055Z,15.70
2023-05-24T18:49:40.700Z,15.70
2023-05-24T18:55:01.631Z,15.60
2023-05-24T18:57:40.353Z,15.60
2023-05-24T19:00:10.296Z,15.50
2023-05-24T19:02:41.414Z,15.50
2023-05-24T19:05:17.485Z,15.40
2023-05-24T19:07:44.430Z,15.40
2023-05-24T19:10:13.995Z,15.40
2023-05-24T19:12:53.108Z,15.40
2023-05-24T19:18:33.266Z,15.30
2023-05-24T19:21:13.045Z,15.30
2023-05-24T19:23:50.094Z,15.30
2023-05-24T19:26:26.145Z,15.20
2023-05-24T19:28:56.471Z,15.20
2023-05-24T19:31:25.031Z,15.20
2023-05-24T19:34:03.481Z,15.20
2023-05-24T19:36:33.061Z,15.10
2023-05-24T19:39:05.313Z,15.00
2023-05-24T19:41:53.888Z,15.00
2023-05-24T19:44:36.939Z,15.00
2023-05-24T19:47:16.205Z,14.90
2023-05-24T19:49:44.561Z,14.90
2023-05-24T19:52:33.534Z,14.90
2023-05-24T19:55:08.560Z,14.90
2023-05-24T19:57:40.374Z,14.90
2023-05-24T20:00:08.214Z,14.80
2023-05-24T20:02:38.792Z,14.80
2023-05-24T20:05:17.334Z,14.80
2023-05-24T20:08:13.476Z,14.70
2023-05-24T20:11:15.487Z,14.70
2023-05-24T20:13:44.202Z,14.70
2023-05-24T20:16:17.101Z,14.60
2023-05-24T20:19:09.867Z,14.50
2023-05-24T20:21:42.491Z,14.50
2023-05-24T20:27:16.321Z,14.40
2023-05-24T20:29:43.311Z,14.50
2023-05-24T20:32:10.078Z,14.40
2023-05-24T20:34:37.107Z,14.40
2023-05-24T20:37:04.432Z,14.40
2023-05-24T20:39:31.701Z,14.40
2023-05-24T20:41:59.349Z,14.30
2023-05-24T20:44:28.628Z,14.40
2023-05-24T20:46:55.481Z,14.40
2023-05-24T20:49:22.252Z,14.40
2023-05-24T20:51:49.166Z,14.40
2023-05-24T20:54:16.409Z,14.30
2023-05-24T20:56:44.455Z,14.40
2023-05-24T20:59:11.629Z,14.30
2023-05-24T21:01:38.498Z,14.40
2023-05-24T21:04:05.642Z,14.40
2023-05-24T21:06:34.264Z,14.30
2023-05-24T21:09:09.974Z,14.20
2023-05-24T21:11:36.879Z,14.10
2023-05-24T21:14:04.067Z,14.20
2023-05-24T21:16:30.988Z,14.20
2023-05-24T21:19:00.781Z,14.20
2023-05-24T21:21:27.770Z,14.00
2023-05-24T21:23:55.686Z,14.00
2023-05-24T21:26:26.859Z,13.90
2023-05-24T21:28:54.092Z,13.90
2023-05-24T21:31:23.894Z,13.90
2023-05-24T21:33:53.449Z,13.80
2023-05-24T21:36:20.725Z,13.90
2023-05-24T21:38:47.584Z,13.80
2023-05-24T21:41:17.213Z,13.80
2023-05-24T21:43:52.132Z,13.70
2023-05-24T21:46:21.576Z,13.60
2023-05-24T21:48:48.446Z,13.60
2023-05-24T21:51:15.713Z,13.60
2023-05-24T21:53:42.725Z,13.60
2023-05-24T21:56:09.524Z,13.50
2023-05-24T21:58:37.975Z,13.50
2023-05-24T22:01:04.873Z,13.50
2023-05-24T22:03:31.835Z,13.40
2023-05-24T22:05:58.666Z,13.50
2023-05-24T22:08:30.838Z,13.50
2023-05-24T22:10:58.573Z,13.50
2023-05-24T22:13:25.516Z,13.50
2023-05-24T22:15:52.366Z,13.50
2023-05-24T22:18:21.943Z,13.50
2023-05-24T22:20:50.711Z,13.50
2023-05-24T22:23:17.783Z,13.50
2023-05-24T22:25:45.039Z,13.50
2023-05-24T22:28:12.006Z,13.50
2023-05-24T22:30:38.997Z,13.60
2023-05-24T22:33:06.867Z,13.50
2023-05-24T22:35:35.072Z,13.50
2023-05-24T22:38:01.816Z,13.50
2023-05-24T22:40:28.612Z,13.40
2023-05-24T22:42:57.742Z,13.40
2023-05-24T22:45:24.451Z,13.40
2023-05-24T22:47:51.532Z,13.30
2023-05-24T22:50:18.542Z,13.40
2023-05-24T22:52:46.786Z,13.30
2023-05-24T22:55:14.015Z,13.30
2023-05-24T22:57:46.283Z,13.30
2023-05-24T23:00:13.706Z,13.20
2023-05-24T23:02:40.581Z,13.20
2023-05-24T23:05:08.093Z,13.30
2023-05-24T23:07:37.551Z,13.20
2023-05-24T23:10:04.933Z,13.30
2023-05-24T23:12:31.836Z,13.30
2023-05-24T23:14:59.571Z,13.20
2023-05-24T23:17:26.554Z,13.30
2023-05-24T23:19:53.851Z,13.30
2023-05-24T23:22:24.089Z,13.30
2023-05-24T23:25:28.741Z,13.30
2023-05-24T23:27:59.024Z,13.30
2023-05-24T23:30:26.206Z,13.20
2023-05-24T23:32:53.660Z,13.10
2023-05-24T23:35:24.134Z,13.20
2023-05-24T23:37:54.838Z,13.10
2023-05-24T23:40:30.333Z,13.20
2023-05-24T23:43:01.800Z,13.20
2023-05-24T23:45:45.990Z,13.20
2023-05-24T23:48:19.255Z,13.10
2023-05-24T23:50:54.074Z,13.10
2023-05-24T23:53:25.083Z,13.10
2023-05-24T23:55:52.199Z,13.10
2023-05-24T23:58:19.766Z,13.10
